sensor_id;sensor_type;location;lat;lon;timestamp;pressure;altitude;pressure_sealevel;temperature;humidity
29315;BME280;16320;53.954;9.506;2023-12-14T00:01:45;100807.44;;;4.20;100.00
29315;BME280;16320;53.954;9.506;2023-12-14T00:04:15;100804.00;;;4.18;100.00
29315;BME280;16320;53.954;9.506;2023-12-14T00:06:43;100810.94;;;4.17;100.00
29315;BME280;16320;53.954;9.506;2023-12-14T00:09:13;100808.28;;;4.20;100.00
29315;BME280;16320;53.954;9.506;2023-12-14T00:11:41;100815.19;;;4.21;100.00
29315;BME280;16320;53.954;9.506;2023-12-14T00:14:09;100808.19;;;4.24;100.00
29315;BME280;16320;53.954;9.506;2023-12-14T00:16:37;100818.59;;;4.24;100.00
29315;BME280;16320;53.954;9.506;2023-12-14T00:19:06;100818.59;;;4.24;100.00
29315;BME280;16320;53.954;9.506;2023-12-14T00:21:36;100823.72;;;4.27;100.00
29315;BME280;16320;53.954;9.506;2023-12-14T00:24:04;100836.72;;;4.27;100.00
29315;BME280;16320;53.954;9.506;2023-12-14T00:26:32;100834.00;;;4.33;100.00
29315;BME280;16320;53.954;9.506;2023-12-14T00:29:00;100839.25;;;4.30;100.00
29315;BME280;16320;53.954;9.506;2023-12-14T00:31:31;100845.31;;;4.30;100.00
29315;BME280;16320;53.954;9.506;2023-12-14T00:33:59;100848.75;;;4.32;100.00
29315;BME280;16320;53.954;9.506;2023-12-14T00:36:27;100848.72;;;4.34;100.00
29315;BME280;16320;53.954;9.506;2023-12-14T00:38:55;100847.94;;;4.29;100.00
29315;BME280;16320;53.954;9.506;2023-12-14T00:41:23;100850.50;;;4.30;100.00
29315;BME280;16320;53.954;9.506;2023-12-14T00:43:51;100861.72;;;4.34;100.00
29315;BME280;16320;53.954;9.506;2023-12-14T00:46:19;100855.78;;;4.27;100.00
29315;BME280;16320;53.954;9.506;2023-12-14T00:48:47;100858.34;;;4.29;100.00
29315;BME280;16320;53.954;9.506;2023-12-14T00:51:16;100858.34;;;4.29;100.00
29315;BME280;16320;53.954;9.506;2023-12-14T00:53:44;100856.66;;;4.28;100.00
29315;BME280;16320;53.954;9.506;2023-12-14T00:56:12;100854.94;;;4.27;100.00
29315;BME280;16320;53.954;9.506;2023-12-14T00:58:40;100855.00;;;4.24;100.00
29315;BME280;16320;53.954;9.506;2023-12-14T01:01:08;100856.66;;;4.28;100.00
29315;BME280;16320;53.954;9.506;2023-12-14T01:03:36;100862.75;;;4.25;100.00
29315;BME280;16320;53.954;9.506;2023-12-14T01:06:05;100868.88;;;4.24;100.00
29315;BME280;16320;53.954;9.506;2023-12-14T01:08:33;100870.53;;;4.27;100.00
29315;BME280;16320;53.954;9.506;2023-12-14T01:11:02;100867.09;;;4.26;100.00
29315;BME280;16320;53.954;9.506;2023-12-14T01:13:32;100864.41;;;4.29;100.00
29315;BME280;16320;53.954;9.506;2023-12-14T01:16:00;100875.72;;;4.27;100.00
29315;BME280;16320;53.954;9.506;2023-12-14T01:18:28;100882.59;;;4.31;100.00
29315;BME280;16320;53.954;9.506;2023-12-14T01:20:56;100879.94;;;4.32;100.00
29315;BME280;16320;53.954;9.506;2023-12-14T01:23:25;100885.22;;;4.29;100.00
29315;BME280;16320;53.954;9.506;2023-12-14T01:25:53;100893.88;;;4.30;100.00
29315;BME280;16320;53.954;9.506;2023-12-14T01:28:21;100901.66;;;4.30;100.00
29315;BME280;16320;53.954;9.506;2023-12-14T01:30:50;100896.41;;;4.33;100.00
29315;BME280;16320;53.954;9.506;2023-12-14T01:33:18;100914.63;;;4.31;100.00
29315;BME280;16320;53.954;9.506;2023-12-14T01:36:12;100912.81;;;4.35;100.00
29315;BME280;16320;53.954;9.506;2023-12-14T01:38:47;100915.41;;;4.35;100.00
29315;BME280;16320;53.954;9.506;2023-12-14T01:41:15;100917.16;;;4.34;100.00
29315;BME280;16320;53.954;9.506;2023-12-14T01:43:44;100914.53;;;4.36;100.00
29315;BME280;16320;53.954;9.506;2023-12-14T01:46:12;100915.47;;;4.32;100.00
29315;BME280;16320;53.954;9.506;2023-12-14T01:48:42;100924.91;;;4.37;100.00
29315;BME280;16320;53.954;9.506;2023-12-14T01:51:10;100929.31;;;4.34;100.00
29315;BME280;16320;53.954;9.506;2023-12-14T01:53:38;100933.66;;;4.33;100.00
29315;BME280;16320;53.954;9.506;2023-12-14T01:56:07;100940.66;;;4.30;100.00
29315;BME280;16320;53.954;9.506;2023-12-14T01:58:36;100943.28;;;4.30;100.00
29315;BME280;16320;53.954;9.506;2023-12-14T02:01:14;100941.47;;;4.32;100.00
29315;BME280;16320;53.954;9.506;2023-12-14T02:03:50;100949.28;;;4.32;100.00
29315;BME280;16320;53.954;9.506;2023-12-14T02:06:20;100946.69;;;4.32;100.00
29315;BME280;16320;53.954;9.506;2023-12-14T02:08:48;100949.28;;;4.32;100.00
29315;BME280;16320;53.954;9.506;2023-12-14T02:11:16;100944.94;;;4.34;100.00
29315;BME280;16320;53.954;9.506;2023-12-14T02:13:44;100956.22;;;4.33;100.00
29315;BME280;16320;53.954;9.506;2023-12-14T02:16:12;100950.31;;;4.25;100.00
29315;BME280;16320;53.954;9.506;2023-12-14T02:18:40;100955.47;;;4.28;100.00
29315;BME280;16320;53.954;9.506;2023-12-14T02:21:08;100961.53;;;4.27;100.00
29315;BME280;16320;53.954;9.506;2023-12-14T02:23:45;100962.56;;;4.19;100.00
29315;BME280;16320;53.954;9.506;2023-12-14T02:26:14;100966.88;;;4.20;100.00
29315;BME280;16320;53.954;9.506;2023-12-14T02:28:42;100970.34;;;4.21;100.00
29315;BME280;16320;53.954;9.506;2023-12-14T02:31:11;100962.50;;;4.22;100.00
29315;BME280;16320;53.954;9.506;2023-12-14T02:33:39;100987.59;;;4.24;100.00
29315;BME280;16320;53.954;9.506;2023-12-14T02:36:07;100991.94;;;4.25;100.00
29315;BME280;16320;53.954;9.506;2023-12-14T02:38:35;100990.25;;;4.20;100.00
29315;BME280;16320;53.954;9.506;2023-12-14T02:41:04;100991.97;;;4.23;100.00
29315;BME280;16320;53.954;9.506;2023-12-14T02:43:32;100986.72;;;4.25;100.00
29315;BME280;16320;53.954;9.506;2023-12-14T02:46:00;100990.19;;;4.24;100.00
29315;BME280;16320;53.954;9.506;2023-12-14T02:48:29;100990.25;;;4.20;100.00
29315;BME280;16320;53.954;9.506;2023-12-14T02:51:00;100998.06;;;4.20;100.00
29315;BME280;16320;53.954;9.506;2023-12-14T02:53:28;101004.97;;;4.23;100.00
29315;BME280;16320;53.954;9.506;2023-12-14T02:55:56;101004.94;;;4.25;100.00
29315;BME280;16320;53.954;9.506;2023-12-14T02:58:28;101004.03;;;4.26;100.00
29315;BME280;16320;53.954;9.506;2023-12-14T03:00:57;101011.72;;;4.30;100.00
29315;BME280;16320;53.954;9.506;2023-12-14T03:03:25;101010.03;;;4.29;100.00
29315;BME280;16320;53.954;9.506;2023-12-14T03:05:55;101005.63;;;4.33;100.00
29315;BME280;16320;53.954;9.506;2023-12-14T03:08:22;101016.78;;;4.38;100.00
29315;BME280;16320;53.954;9.506;2023-12-14T03:10:51;101015.06;;;4.37;100.00
29315;BME280;16320;53.954;9.506;2023-12-14T03:13:19;101024.69;;;4.32;100.00
29315;BME280;16320;53.954;9.506;2023-12-14T03:15:49;101016.84;;;4.35;100.00
29315;BME280;16320;53.954;9.506;2023-12-14T03:18:17;101022.84;;;4.37;100.00
29315;BME280;16320;53.954;9.506;2023-12-14T03:20:46;101022.00;;;4.36;100.00
29315;BME280;16320;53.954;9.506;2023-12-14T03:23:14;101026.38;;;4.36;100.00
29315;BME280;16320;53.954;9.506;2023-12-14T03:25:42;101032.50;;;4.32;100.00
29315;BME280;16320;53.954;9.506;2023-12-14T03:28:10;101033.25;;;4.37;100.00
29315;BME280;16320;53.954;9.506;2023-12-14T03:30:38;101039.31;;;4.39;100.00
29315;BME280;16320;53.954;9.506;2023-12-14T03:33:08;101040.13;;;4.41;100.00
29315;BME280;16320;53.954;9.506;2023-12-14T03:35:36;101036.66;;;4.40;100.00
29315;BME280;16320;53.954;9.506;2023-12-14T03:38:04;101031.56;;;4.36;100.00
29315;BME280;16320;53.954;9.506;2023-12-14T03:40:32;101038.47;;;4.37;100.00
29315;BME280;16320;53.954;9.506;2023-12-14T03:43:00;101048.94;;;4.34;100.00
29315;BME280;16320;53.954;9.506;2023-12-14T03:45:29;101048.88;;;4.35;100.00
29315;BME280;16320;53.954;9.506;2023-12-14T03:47:58;101048.06;;;4.33;100.00
29315;BME280;16320;53.954;9.506;2023-12-14T03:50:26;101051.50;;;4.35;100.00
29315;BME280;16320;53.954;9.506;2023-12-14T03:52:54;101055.78;;;4.38;100.00
29315;BME280;16320;53.954;9.506;2023-12-14T03:55:24;101055.00;;;4.34;100.00
29315;BME280;16320;53.954;9.506;2023-12-14T03:57:52;101062.00;;;4.31;100.00
29315;BME280;16320;53.954;9.506;2023-12-14T04:00:20;101061.22;;;4.26;100.00
29315;BME280;16320;53.954;9.506;2023-12-14T04:02:48;101070.75;;;4.27;100.00
29315;BME280;16320;53.954;9.506;2023-12-14T04:05:16;101076.78;;;4.29;100.00
29315;BME280;16320;53.954;9.506;2023-12-14T04:07:45;101080.22;;;4.31;100.00
29315;BME280;16320;53.954;9.506;2023-12-14T04:10:13;101079.34;;;4.30;100.00
29315;BME280;16320;53.954;9.506;2023-12-14T04:12:42;101073.28;;;4.30;100.00
29315;BME280;16320;53.954;9.506;2023-12-14T04:15:10;101081.91;;;4.32;100.00
29315;BME280;16320;53.954;9.506;2023-12-14T04:17:38;101083.69;;;4.30;100.00
29315;BME280;16320;53.954;9.506;2023-12-14T04:20:08;101088.00;;;4.32;100.00
29315;BME280;16320;53.954;9.506;2023-12-14T04:22:39;101085.47;;;4.28;100.00
29315;BME280;16320;53.954;9.506;2023-12-14T04:25:07;101095.81;;;4.31;100.00
29315;BME280;16320;53.954;9.506;2023-12-14T04:27:35;101096.72;;;4.28;100.00
29315;BME280;16320;53.954;9.506;2023-12-14T04:30:05;101099.34;;;4.27;100.00
29315;BME280;16320;53.954;9.506;2023-12-14T04:32:38;101101.94;;;4.28;100.00
29315;BME280;16320;53.954;9.506;2023-12-14T04:35:06;101102.81;;;4.26;100.00
29315;BME280;16320;53.954;9.506;2023-12-14T04:37:35;101105.38;;;4.29;100.00
29315;BME280;16320;53.954;9.506;2023-12-14T04:40:06;101114.94;;;4.27;100.00
29315;BME280;16320;53.954;9.506;2023-12-14T04:42:34;101116.75;;;4.25;100.00
29315;BME280;16320;53.954;9.506;2023-12-14T04:45:04;101115.97;;;4.19;100.00
29315;BME280;16320;53.954;9.506;2023-12-14T04:47:32;101128.94;;;4.21;100.00
29315;BME280;16320;53.954;9.506;2023-12-14T04:50:00;101122.88;;;4.19;100.00
29315;BME280;16320;53.954;9.506;2023-12-14T04:52:30;101114.22;;;4.20;100.00
29315;BME280;16320;53.954;9.506;2023-12-14T04:55:00;101136.78;;;4.19;100.00
29315;BME280;16320;53.954;9.506;2023-12-14T04:57:28;101130.72;;;4.17;100.00
29315;BME280;16320;53.954;9.506;2023-12-14T04:59:56;101131.69;;;4.13;100.00
29315;BME280;16320;53.954;9.506;2023-12-14T05:02:23;101139.53;;;4.10;100.00
29315;BME280;16320;53.954;9.506;2023-12-14T05:04:52;101143.06;;;4.06;100.00
29315;BME280;16320;53.954;9.506;2023-12-14T05:07:20;101137.81;;;4.09;100.00
29315;BME280;16320;53.954;9.506;2023-12-14T05:09:50;101151.75;;;4.05;100.00
29315;BME280;16320;53.954;9.506;2023-12-14T05:12:19;101156.09;;;4.05;100.00
29315;BME280;16320;53.954;9.506;2023-12-14T05:14:47;101155.19;;;4.07;100.00
29315;BME280;16320;53.954;9.506;2023-12-14T05:17:15;101143.97;;;4.05;100.00
29315;BME280;16320;53.954;9.506;2023-12-14T05:19:46;101155.22;;;4.04;100.00
29315;BME280;16320;53.954;9.506;2023-12-14T05:22:14;101160.44;;;4.04;100.00
29315;BME280;16320;53.954;9.506;2023-12-14T05:24:47;101158.66;;;4.06;100.00
29315;BME280;16320;53.954;9.506;2023-12-14T05:27:15;101167.31;;;4.08;100.00
29315;BME280;16320;53.954;9.506;2023-12-14T05:29:43;101169.06;;;4.06;100.00
29315;BME280;16320;53.954;9.506;2023-12-14T05:32:11;101172.50;;;4.08;100.00
29315;BME280;16320;53.954;9.506;2023-12-14T05:34:40;101169.94;;;4.07;100.00
29315;BME280;16320;53.954;9.506;2023-12-14T05:37:08;101174.34;;;4.03;100.00
29315;BME280;16320;53.954;9.506;2023-12-14T05:39:40;101182.13;;;4.03;100.00
29315;BME280;16320;53.954;9.506;2023-12-14T05:42:09;101183.81;;;4.04;100.00
29315;BME280;16320;53.954;9.506;2023-12-14T05:44:38;101183.03;;;4.00;100.00
29315;BME280;16320;53.954;9.506;2023-12-14T05:47:06;101179.59;;;3.98;100.00
29315;BME280;16320;53.954;9.506;2023-12-14T05:49:34;101190.84;;;3.99;100.00
29315;BME280;16320;53.954;9.506;2023-12-14T05:52:04;101198.66;;;3.97;100.00
29315;BME280;16320;53.954;9.506;2023-12-14T05:54:32;101205.63;;;3.97;100.00
29315;BME280;16320;53.954;9.506;2023-12-14T05:57:00;101202.19;;;3.95;100.00
29315;BME280;16320;53.954;9.506;2023-12-14T05:59:28;101198.75;;;3.93;100.00
29315;BME280;16320;53.954;9.506;2023-12-14T06:01:58;101205.66;;;3.94;100.00
29315;BME280;16320;53.954;9.506;2023-12-14T06:04:27;101218.63;;;3.95;100.00
29315;BME280;16320;53.954;9.506;2023-12-14T06:06:55;101216.06;;;3.94;100.00
29315;BME280;16320;53.954;9.506;2023-12-14T06:09:23;101229.00;;;3.98;100.00
29315;BME280;16320;53.954;9.506;2023-12-14T06:12:02;101240.28;;;3.96;100.00
29315;BME280;16320;53.954;9.506;2023-12-14T06:14:31;101241.03;;;4.02;100.00
29315;BME280;16320;53.954;9.506;2023-12-14T06:16:59;101241.03;;;4.02;100.00
29315;BME280;16320;53.954;9.506;2023-12-14T06:19:27;101238.47;;;3.99;100.00
29315;BME280;16320;53.954;9.506;2023-12-14T06:21:55;101248.84;;;4.01;100.00
29315;BME280;16320;53.954;9.506;2023-12-14T06:24:24;101255.78;;;4.02;100.00
29315;BME280;16320;53.954;9.506;2023-12-14T06:26:52;101260.13;;;4.03;100.00
29315;BME280;16320;53.954;9.506;2023-12-14T06:29:20;101268.75;;;4.03;100.00
29315;BME280;16320;53.954;9.506;2023-12-14T06:31:48;101275.69;;;4.05;100.00
29315;BME280;16320;53.954;9.506;2023-12-14T06:34:17;101280.88;;;4.05;100.00
29315;BME280;16320;53.954;9.506;2023-12-14T06:36:46;101282.63;;;4.02;100.00
29315;BME280;16320;53.954;9.506;2023-12-14T06:39:14;101289.50;;;4.08;100.00
29315;BME280;16320;53.954;9.506;2023-12-14T06:41:46;101292.06;;;4.10;100.00
29315;BME280;16320;53.954;9.506;2023-12-14T06:44:15;101295.50;;;4.10;100.00
29315;BME280;16320;53.954;9.506;2023-12-14T06:46:44;101299.88;;;4.08;100.00
29315;BME280;16320;53.954;9.506;2023-12-14T06:49:12;101306.00;;;4.04;100.00
29315;BME280;16320;53.954;9.506;2023-12-14T06:51:40;101307.72;;;4.05;100.00
29315;BME280;16320;53.954;9.506;2023-12-14T06:54:08;101313.81;;;4.04;100.00
29315;BME280;16320;53.954;9.506;2023-12-14T06:56:38;101315.50;;;4.08;100.00
29315;BME280;16320;53.954;9.506;2023-12-14T06:59:06;101315.50;;;4.08;100.00
29315;BME280;16320;53.954;9.506;2023-12-14T07:01:34;101312.94;;;4.05;100.00
29315;BME280;16320;53.954;9.506;2023-12-14T07:04:02;101321.59;;;4.04;100.00
29315;BME280;16320;53.954;9.506;2023-12-14T07:06:30;101323.31;;;4.05;100.00
29315;BME280;16320;53.954;9.506;2023-12-14T07:08:59;101326.84;;;4.01;100.00
29315;BME280;16320;53.954;9.506;2023-12-14T07:11:27;101332.00;;;4.04;100.00
29315;BME280;16320;53.954;9.506;2023-12-14T07:13:55;101336.34;;;4.03;100.00
29315;BME280;16320;53.954;9.506;2023-12-14T07:16:23;101332.81;;;4.06;100.00
29315;BME280;16320;53.954;9.506;2023-12-14T07:18:51;101335.47;;;4.05;100.00
29315;BME280;16320;53.954;9.506;2023-12-14T07:21:20;101337.22;;;4.02;100.00
29315;BME280;16320;53.954;9.506;2023-12-14T07:23:48;101342.44;;;4.01;100.00
29315;BME280;16320;53.954;9.506;2023-12-14T07:26:16;101344.13;;;4.05;100.00
29315;BME280;16320;53.954;9.506;2023-12-14T07:28:44;101343.38;;;3.98;100.00
29315;BME280;16320;53.954;9.506;2023-12-14T07:31:12;101354.66;;;3.96;100.00
29315;BME280;16320;53.954;9.506;2023-12-14T07:33:40;101353.78;;;3.97;100.00
29315;BME280;16320;53.954;9.506;2023-12-14T07:36:09;101352.84;;;4.01;100.00
29315;BME280;16320;53.954;9.506;2023-12-14T07:38:37;101356.28;;;4.03;100.00
29315;BME280;16320;53.954;9.506;2023-12-14T07:41:05;101359.72;;;4.05;100.00
29315;BME280;16320;53.954;9.506;2023-12-14T07:43:33;101368.44;;;4.01;100.00
29315;BME280;16320;53.954;9.506;2023-12-14T07:46:01;101374.53;;;4.00;100.00
29315;BME280;16320;53.954;9.506;2023-12-14T07:48:30;101379.69;;;4.03;100.00
29315;BME280;16320;53.954;9.506;2023-12-14T07:50:59;101389.22;;;4.01;100.00
29315;BME280;16320;53.954;9.506;2023-12-14T07:53:27;101391.81;;;4.02;100.00
29315;BME280;16320;53.954;9.506;2023-12-14T07:55:55;101386.56;;;4.06;100.00
29315;BME280;16320;53.954;9.506;2023-12-14T07:58:25;101395.28;;;4.05;100.00
29315;BME280;16320;53.954;9.506;2023-12-14T08:00:53;101399.56;;;4.06;100.00
29315;BME280;16320;53.954;9.506;2023-12-14T08:03:21;101404.78;;;4.06;100.00
29315;BME280;16320;53.954;9.506;2023-12-14T08:05:50;101413.38;;;4.09;100.00
29315;BME280;16320;53.954;9.506;2023-12-14T08:08:18;101425.53;;;4.07;100.00
29315;BME280;16320;53.954;9.506;2023-12-14T08:10:46;101424.78;;;4.00;100.00
29315;BME280;16320;53.954;9.506;2023-12-14T08:13:15;101426.47;;;4.03;100.00
29315;BME280;16320;53.954;9.506;2023-12-14T08:15:43;101429.00;;;4.06;100.00
29315;BME280;16320;53.954;9.506;2023-12-14T08:18:11;101439.47;;;4.03;100.00
29315;BME280;16320;53.954;9.506;2023-12-14T08:20:39;101435.09;;;4.07;100.00
29315;BME280;16320;53.954;9.506;2023-12-14T08:23:08;101442.06;;;4.05;100.00
29315;BME280;16320;53.954;9.506;2023-12-14T08:25:37;101439.41;;;4.06;100.00
29315;BME280;16320;53.954;9.506;2023-12-14T08:28:05;101451.50;;;4.10;100.00
29315;BME280;16320;53.954;9.506;2023-12-14T08:30:33;101453.09;;;4.20;100.00
29315;BME280;16320;53.954;9.506;2023-12-14T08:33:02;101456.63;;;4.16;100.00
29315;BME280;16320;53.954;9.506;2023-12-14T08:35:31;101451.44;;;4.15;100.00
29315;BME280;16320;53.954;9.506;2023-12-14T08:37:59;101453.19;;;4.14;100.00
29315;BME280;16320;53.954;9.506;2023-12-14T08:40:27;101460.13;;;4.14;100.00
29315;BME280;16320;53.954;9.506;2023-12-14T08:42:55;101451.47;;;4.13;100.00
29315;BME280;16320;53.954;9.506;2023-12-14T08:45:25;101458.34;;;4.17;100.00
29315;BME280;16320;53.954;9.506;2023-12-14T08:47:53;101459.25;;;4.15;100.00
29315;BME280;16320;53.954;9.506;2023-12-14T08:50:21;101460.06;;;4.18;100.00
29315;BME280;16320;53.954;9.506;2023-12-14T08:52:49;101456.66;;;4.13;100.00
29315;BME280;16320;53.954;9.506;2023-12-14T08:55:19;101459.19;;;4.19;100.00
29315;BME280;16320;53.954;9.506;2023-12-14T08:57:48;101466.88;;;4.26;100.00
29315;BME280;16320;53.954;9.506;2023-12-14T09:00:17;101473.84;;;4.24;100.00
29315;BME280;16320;53.954;9.506;2023-12-14T09:02:45;101467.88;;;4.18;100.00
29315;BME280;16320;53.954;9.506;2023-12-14T09:05:14;101472.19;;;4.19;100.00
29315;BME280;16320;53.954;9.506;2023-12-14T09:07:43;101484.16;;;4.33;100.00
29315;BME280;16320;53.954;9.506;2023-12-14T09:10:11;101485.91;;;4.31;100.00
29315;BME280;16320;53.954;9.506;2023-12-14T09:12:39;101489.38;;;4.31;100.00
29315;BME280;16320;53.954;9.506;2023-12-14T09:15:07;101500.59;;;4.35;100.00
29315;BME280;16320;53.954;9.506;2023-12-14T09:17:35;101492.75;;;4.38;100.00
29315;BME280;16320;53.954;9.506;2023-12-14T09:20:05;101484.16;;;4.33;100.00
29315;BME280;16320;53.954;9.506;2023-12-14T09:22:33;101489.28;;;4.39;100.00
29315;BME280;16320;53.954;9.506;2023-12-14T09:25:01;101488.38;;;4.40;100.00
29315;BME280;16320;53.954;9.506;2023-12-14T09:27:30;101489.28;;;4.39;100.00
29315;BME280;16320;53.954;9.506;2023-12-14T09:29:58;101491.91;;;4.37;100.00
29315;BME280;16320;53.954;9.506;2023-12-14T09:32:26;101494.50;;;4.37;100.00
29315;BME280;16320;53.954;9.506;2023-12-14T09:34:54;101492.75;;;4.38;100.00
29315;BME280;16320;53.954;9.506;2023-12-14T09:37:23;101500.47;;;4.44;100.00
29315;BME280;16320;53.954;9.506;2023-12-14T09:39:51;101505.59;;;4.50;100.00
29315;BME280;16320;53.954;9.506;2023-12-14T09:42:20;101506.44;;;4.52;100.00
29315;BME280;16320;53.954;9.506;2023-12-14T09:44:49;101514.13;;;4.60;100.00
29315;BME280;16320;53.954;9.506;2023-12-14T09:47:18;101508.03;;;4.59;100.00
29315;BME280;16320;53.954;9.506;2023-12-14T09:49:48;101515.06;;;4.54;100.00
29315;BME280;16320;53.954;9.506;2023-12-14T09:52:17;101516.72;;;4.60;100.00
29315;BME280;16320;53.954;9.506;2023-12-14T09:54:45;101521.91;;;4.62;100.00
29315;BME280;16320;53.954;9.506;2023-12-14T09:57:13;101519.34;;;4.58;100.00
29315;BME280;16320;53.954;9.506;2023-12-14T09:59:41;101526.25;;;4.61;100.00
29315;BME280;16320;53.954;9.506;2023-12-14T10:02:11;101527.00;;;4.68;100.00
29315;BME280;16320;53.954;9.506;2023-12-14T10:04:39;101539.09;;;4.72;100.00
29315;BME280;16320;53.954;9.506;2023-12-14T10:07:08;101533.13;;;4.65;100.00
29315;BME280;16320;53.954;9.506;2023-12-14T10:09:40;101543.56;;;4.64;100.00
29315;BME280;16320;53.954;9.506;2023-12-14T10:12:10;101544.28;;;4.75;100.00
29315;BME280;16320;53.954;9.506;2023-12-14T10:14:39;101545.22;;;4.69;100.00
29315;BME280;16320;53.954;9.506;2023-12-14T10:17:21;101541.78;;;4.67;100.00
29315;BME280;16320;53.954;9.506;2023-12-14T10:19:55;101543.47;;;4.71;100.00
29315;BME280;16320;53.954;9.506;2023-12-14T10:22:27;101548.56;;;4.77;100.00
29315;BME280;16320;53.954;9.506;2023-12-14T10:24:59;101556.34;;;4.79;100.00
29315;BME280;16320;53.954;9.506;2023-12-14T10:27:28;101553.75;;;4.77;100.00
29315;BME280;16320;53.954;9.506;2023-12-14T10:29:56;101552.84;;;4.83;100.00
29315;BME280;16320;53.954;9.506;2023-12-14T10:32:25;101558.88;;;4.85;100.00
29315;BME280;16320;53.954;9.506;2023-12-14T10:34:53;101559.66;;;4.90;100.00
29315;BME280;16320;53.954;9.506;2023-12-14T10:37:21;101548.38;;;4.91;100.00
29315;BME280;16320;53.954;9.506;2023-12-14T10:39:53;101549.16;;;4.97;100.00
29315;BME280;16320;53.954;9.506;2023-12-14T10:42:22;101557.97;;;4.89;100.00
29315;BME280;16320;53.954;9.506;2023-12-14T10:44:53;101553.72;;;4.81;100.00
29315;BME280;16320;53.954;9.506;2023-12-14T10:47:44;101562.38;;;4.84;100.00
29315;BME280;16320;53.954;9.506;2023-12-14T10:50:14;101559.66;;;4.90;100.00
29315;BME280;16320;53.954;9.506;2023-12-14T10:52:44;101568.31;;;4.92;100.00
29315;BME280;16320;53.954;9.506;2023-12-14T10:55:38;101579.50;;;4.99;100.00
29315;BME280;16320;53.954;9.506;2023-12-14T10:58:09;101582.94;;;5.01;100.00
29315;BME280;16320;53.954;9.506;2023-12-14T11:00:38;101592.47;;;5.04;100.00
29315;BME280;16320;53.954;9.506;2023-12-14T11:03:06;101596.75;;;5.06;100.00
29315;BME280;16320;53.954;9.506;2023-12-14T11:05:35;101600.31;;;5.02;100.00
29315;BME280;16320;53.954;9.506;2023-12-14T11:08:05;101608.91;;;5.07;100.00
29315;BME280;16320;53.954;9.506;2023-12-14T11:10:39;101616.78;;;5.03;100.00
29315;BME280;16320;53.954;9.506;2023-12-14T11:13:12;101617.59;;;5.05;100.00
29315;BME280;16320;53.954;9.506;2023-12-14T11:15:51;101623.72;;;5.02;100.00
29315;BME280;16320;53.954;9.506;2023-12-14T11:18:24;101621.97;;;5.03;100.00
29315;BME280;16320;53.954;9.506;2023-12-14T11:21:00;101627.09;;;5.10;100.00
29315;BME280;16320;53.954;9.506;2023-12-14T11:23:31;101625.34;;;5.11;100.00
29315;BME280;16320;53.954;9.506;2023-12-14T11:26:03;101616.78;;;5.03;100.00
29315;BME280;16320;53.954;9.506;2023-12-14T11:28:39;101619.16;;;5.17;100.00
29315;BME280;16320;53.954;9.506;2023-12-14T11:31:11;101619.13;;;5.20;100.00
29315;BME280;16320;53.954;9.506;2023-12-14T11:33:39;101610.50;;;5.16;100.00
29315;BME280;16320;53.954;9.506;2023-12-14T11:36:14;101618.25;;;5.19;100.00
29315;BME280;16320;53.954;9.506;2023-12-14T11:38:43;101635.56;;;5.25;100.00
29315;BME280;16320;53.954;9.506;2023-12-14T11:41:11;101643.41;;;5.23;100.00
29315;BME280;16320;53.954;9.506;2023-12-14T11:43:44;101646.00;;;5.23;100.00
29315;BME280;16320;53.954;9.506;2023-12-14T11:46:13;101633.84;;;5.22;100.00
29315;BME280;16320;53.954;9.506;2023-12-14T11:48:47;101636.47;;;5.22;100.00
29315;BME280;16320;53.954;9.506;2023-12-14T11:51:15;101637.31;;;5.21;100.00
29315;BME280;16320;53.954;9.506;2023-12-14T11:53:46;101644.19;;;5.28;100.00
29315;BME280;16320;53.954;9.506;2023-12-14T11:56:18;101644.28;;;5.22;100.00
29315;BME280;16320;53.954;9.506;2023-12-14T11:58:46;101651.25;;;5.20;100.00
29315;BME280;16320;53.954;9.506;2023-12-14T12:01:17;101652.03;;;5.27;100.00
29315;BME280;16320;53.954;9.506;2023-12-14T12:03:47;101649.31;;;5.35;100.00
29315;BME280;16320;53.954;9.506;2023-12-14T12:06:26;101638.81;;;5.38;100.00
29315;BME280;16320;53.954;9.506;2023-12-14T12:08:55;101644.06;;;5.36;100.00
29315;BME280;16320;53.954;9.506;2023-12-14T12:11:24;101644.03;;;5.38;100.00
29315;BME280;16320;53.954;9.506;2023-12-14T12:13:56;101651.75;;;5.44;100.00
29315;BME280;16320;53.954;9.506;2023-12-14T12:16:27;101654.38;;;5.42;100.00
29315;BME280;16320;53.954;9.506;2023-12-14T12:18:55;101659.66;;;5.38;100.00
29315;BME280;16320;53.954;9.506;2023-12-14T12:21:23;101654.41;;;5.41;100.00
29315;BME280;16320;53.954;9.506;2023-12-14T12:23:52;101654.59;;;5.28;100.00
29315;BME280;16320;53.954;9.506;2023-12-14T12:26:20;101648.59;;;5.23;100.00
29315;BME280;16320;53.954;9.506;2023-12-14T12:28:48;101640.84;;;5.20;100.00
29315;BME280;16320;53.954;9.506;2023-12-14T12:31:16;101655.47;;;5.29;100.00
29315;BME280;16320;53.954;9.506;2023-12-14T12:33:44;101647.75;;;5.21;100.00
29315;BME280;16320;53.954;9.506;2023-12-14T12:36:13;101639.09;;;5.19;100.00
29315;BME280;16320;53.954;9.506;2023-12-14T12:38:42;101637.25;;;5.27;100.00
29315;BME280;16320;53.954;9.506;2023-12-14T12:41:09;101629.53;;;5.20;100.00
29315;BME280;16320;53.954;9.506;2023-12-14T12:43:38;101636.50;;;5.19;100.00
29315;BME280;16320;53.954;9.506;2023-12-14T12:46:06;101626.19;;;5.10;100.00
29315;BME280;16320;53.954;9.506;2023-12-14T12:48:34;101632.28;;;5.12;100.00
29315;BME280;16320;53.954;9.506;2023-12-14T12:51:03;101631.50;;;5.05;100.00
29315;BME280;16320;53.954;9.506;2023-12-14T12:53:32;101617.66;;;5.00;100.00
29315;BME280;16320;53.954;9.506;2023-12-14T12:56:00;101611.66;;;4.95;100.00
29315;BME280;16320;53.954;9.506;2023-12-14T12:58:29;101617.66;;;5.00;100.00
29315;BME280;16320;53.954;9.506;2023-12-14T13:00:57;101611.75;;;4.87;100.00